Time;durP1;ratioP1;P1;durP2;ratioP2;P2;SDS_P1;SDS_P2;PMS_P1;PMS_P2;Temp;Humidity;BMP_temperature;BMP_pressure;BME280_temperature;BME280_humidity;BME280_pressure;Samples;Min_cycle;Max_cycle;Signal;HPM_P1;HPM_P2
2023/09/02 00:00:22;;;;;;;6.97;3.72;;;;;;;20.26;80.24;98360.13;4503132;31;20431;-78
2023/09/02 00:02:49;;;;;;;6.35;3.33;;;;;;;20.39;80.86;98352.13;4503718;31;20532;-78
2023/09/02 00:05:16;;;;;;;6.28;3.45;;;;;;;20.56;80.51;98356.94;4503253;31;20124;-78
2023/09/02 00:07:43;;;;;;;6.72;3.50;;;;;;;20.60;79.85;98355.72;4503747;31;20134;-78
2023/09/02 00:10:10;;;;;;;5.90;3.40;;;;;;;20.77;79.05;98354.41;4503589;31;20093;-78
2023/09/02 00:12:37;;;;;;;7.62;3.40;;;;;;;20.74;79.83;98347.63;4503336;31;20098;-79
2023/09/02 00:15:05;;;;;;;5.93;3.10;;;;;;;20.47;81.20;98358.47;4503465;31;20111;-78
2023/09/02 00:17:33;;;;;;;6.85;3.40;;;;;;;20.68;80.19;98353.34;4503666;31;20100;-78
2023/09/02 00:20:01;;;;;;;9.45;3.90;;;;;;;20.70;79.25;98347.97;4503261;31;20083;-78
2023/09/02 00:22:30;;;;;;;8.52;3.70;;;;;;;20.33;80.13;98350.84;4503511;31;20098;-78
2023/09/02 00:24:58;;;;;;;7.70;3.97;;;;;;;20.43;79.05;98366.72;4503394;31;20096;-79
2023/09/02 00:27:25;;;;;;;7.70;3.97;;;;;;;20.59;77.50;98351.44;4502905;31;20168;-78
2023/09/02 00:29:52;;;;;;;8.52;3.62;;;;;;;20.33;79.63;98353.47;4503504;31;20087;-78
2023/09/02 00:32:19;;;;;;;9.30;4.12;;;;;;;20.29;80.20;98352.00;4503550;31;20422;-79
2023/09/02 00:34:47;;;;;;;14.10;4.20;;;;;;;20.58;78.31;98344.53;4502928;31;20068;-79
2023/09/02 00:37:14;;;;;;;6.75;3.58;;;;;;;20.46;78.95;98350.75;4489246;31;20564;-78
2023/09/02 00:39:41;;;;;;;9.02;4.20;;;;;;;20.44;78.30;98345.63;4503585;31;20084;-79
2023/09/02 00:42:10;;;;;;;7.95;4.10;;;;;;;20.33;79.70;98353.47;4503194;31;20094;-78
2023/09/02 00:44:37;;;;;;;7.12;4.00;;;;;;;20.75;76.30;98341.41;4503380;31;20072;-79
2023/09/02 00:47:04;;;;;;;12.25;4.60;;;;;;;20.48;77.48;98339.19;4502969;31;20157;-78
2023/09/02 00:49:32;;;;;;;8.35;3.87;;;;;;;20.20;79.10;98344.84;4503398;31;20109;-79
2023/09/02 00:51:58;;;;;;;9.13;4.35;;;;;;;20.10;80.09;98344.75;4489186;31;20446;-78
2023/09/02 00:54:25;;;;;;;7.18;4.05;;;;;;;20.26;79.66;98346.19;4502979;31;20127;-78
2023/09/02 00:56:52;;;;;;;8.73;4.68;;;;;;;20.13;80.29;98346.31;4503291;31;20159;-78
2023/09/02 00:59:19;;;;;;;11.02;4.37;;;;;;;19.86;82.03;98344.81;4503260;31;20111;-78
2023/09/02 01:01:46;;;;;;;8.25;3.97;;;;;;;19.87;81.41;98350.88;4503080;31;20084;-78
2023/09/02 01:04:13;;;;;;;7.50;4.03;;;;;;;19.92;81.08;98352.22;4503205;31;20442;-78
2023/09/02 01:06:40;;;;;;;7.85;4.18;;;;;;;20.04;80.49;98347.00;4503216;31;20159;-78
2023/09/02 01:09:07;;;;;;;8.60;4.03;;;;;;;20.08;79.81;98354.50;4502828;31;20116;-78
2023/09/02 01:11:34;;;;;;;8.18;4.20;;;;;;;19.90;80.58;98350.69;4502119;31;20098;-78
2023/09/02 01:14:02;;;;;;;8.07;4.35;;;;;;;19.76;82.16;98351.69;4502781;31;20560;-78
2023/09/02 01:16:29;;;;;;;7.90;4.07;;;;;;;19.73;82.09;98349.31;4502819;31;20079;-78
2023/09/02 01:18:57;;;;;;;8.00;4.28;;;;;;;19.83;81.34;98349.47;4503015;31;20112;-78
2023/09/02 01:22:00;;;;;;;7.90;4.05;;;;;;;19.64;83.05;98348.22;4503099;31;20159;-78
2023/09/02 01:24:43;;;;;;;7.65;3.90;;;;;;;19.84;82.00;98351.12;4488771;31;20072;-78
2023/09/02 01:27:16;;;;;;;8.48;4.32;;;;;;;19.92;81.52;98341.75;4502706;31;20096;-78
2023/09/02 01:30:05;;;;;;;8.02;3.97;;;;;;;20.04;80.59;98333.91;4502837;31;20092;-78
2023/09/02 01:32:39;;;;;;;7.85;3.90;;;;;;;19.80;82.14;98345.31;4503046;31;20152;-78
2023/09/02 01:35:08;;;;;;;8.43;4.10;;;;;;;20.19;79.54;98346.66;4488753;31;20098;-78
2023/09/02 01:37:42;;;;;;;7.78;3.92;;;;;;;20.23;78.55;98344.63;4488199;31;20159;-78
2023/09/02 01:40:11;;;;;;;8.25;4.07;;;;;;;20.16;79.09;98353.91;4489201;31;20167;-78
2023/09/02 01:42:39;;;;;;;7.20;3.70;;;;;;;19.66;81.88;98348.09;4488636;31;20091;-78
2023/09/02 01:45:07;;;;;;;8.18;3.92;;;;;;;19.87;80.69;98349.09;4488170;31;20155;-78
2023/09/02 01:47:34;;;;;;;6.85;3.67;;;;;;;19.75;81.74;98354.44;4502799;31;20113;-78
2023/09/02 01:50:03;;;;;;;7.18;3.67;;;;;;;19.85;81.62;98355.41;4502471;31;20114;-77
2023/09/02 01:52:30;;;;;;;8.02;3.97;;;;;;;19.91;80.73;98355.78;4488572;31;20151;-78
2023/09/02 01:54:57;;;;;;;7.00;3.58;;;;;;;19.98;80.79;98350.06;4502549;31;20167;-78
2023/09/02 01:57:24;;;;;;;8.82;3.87;;;;;;;19.76;81.24;98354.31;4502410;31;20137;-78
2023/09/02 01:59:51;;;;;;;7.37;3.80;;;;;;;19.84;80.85;98351.97;4488504;31;20142;-77
2023/09/02 02:02:18;;;;;;;9.18;4.05;;;;;;;19.60;81.81;98356.44;4502468;31;20636;-77
2023/09/02 02:04:49;;;;;;;8.60;4.37;;;;;;;19.66;81.32;98361.19;4502137;31;20155;-77
2023/09/02 02:07:17;;;;;;;7.53;3.92;;;;;;;19.77;80.31;98361.22;4488177;31;20140;-77
2023/09/02 02:09:48;;;;;;;8.75;4.00;;;;;;;19.51;82.02;98360.53;4502523;31;20180;-77
2023/09/02 02:12:15;;;;;;;7.70;3.70;;;;;;;19.59;81.89;98360.00;4487860;31;20449;-77
2023/09/02 02:14:42;;;;;;;9.25;4.12;;;;;;;19.78;80.22;98362.91;4488154;31;20102;-77
2023/09/02 02:17:09;;;;;;;7.50;3.97;;;;;;;19.68;80.21;98354.09;4502292;31;20104;-77
2023/09/02 02:19:36;;;;;;;8.52;4.40;;;;;;;19.65;80.69;98354.28;4502051;31;20143;-77
2023/09/02 02:22:03;;;;;;;9.38;3.95;;;;;;;19.56;80.86;98344.50;4475184;31;20542;-77
2023/09/02 02:24:30;;;;;;;8.10;3.80;;;;;;;19.77;80.55;98340.28;4503643;31;20076;-76
2023/09/02 02:26:57;;;;;;;6.68;3.40;;;;;;;19.79;79.63;98348.03;4503744;31;20143;-76
2023/09/02 02:29:24;;;;;;;8.02;3.90;;;;;;;19.73;80.14;98351.94;4504392;31;20148;-76
2023/09/02 02:31:51;;;;;;;7.47;3.50;;;;;;;19.79;79.42;98345.44;4504422;31;20551;-76
2023/09/02 02:34:18;;;;;;;7.53;3.37;;;;;;;19.65;79.20;98349.06;4503907;31;20077;-76
2023/09/02 02:36:44;;;;;;;6.85;3.60;;;;;;;19.77;78.68;98348.13;4504207;31;20407;-76
2023/09/02 02:39:11;;;;;;;8.02;3.67;;;;;;;19.89;77.52;98355.09;4503978;31;20139;-77
2023/09/02 02:41:38;;;;;;;9.35;4.07;;;;;;;19.58;78.88;98355.72;4504388;31;20115;-76
2023/09/02 02:44:05;;;;;;;8.02;4.10;;;;;;;19.40;80.81;98354.44;4504243;31;20099;-77
2023/09/02 02:46:33;;;;;;;7.55;4.10;;;;;;;19.24;81.71;98354.69;4489672;31;20490;-77
2023/09/02 02:48:59;;;;;;;8.73;4.15;;;;;;;19.31;81.45;98348.09;4504013;31;20096;-77
2023/09/02 02:51:26;;;;;;;8.45;3.75;;;;;;;19.31;81.27;98351.53;4504044;31;20088;-77
2023/09/02 02:53:53;;;;;;;7.97;3.75;;;;;;;19.26;80.92;98353.66;4503795;31;20588;-76
2023/09/02 02:56:20;;;;;;;8.57;3.92;;;;;;;19.52;79.53;98349.13;4504086;31;20498;-77
2023/09/02 02:58:47;;;;;;;9.68;4.45;;;;;;;19.14;80.95;98341.50;4504136;31;20118;-76
2023/09/02 03:01:16;;;;;;;9.60;4.00;;;;;;;19.26;81.10;98343.19;4503803;31;20080;-77
2023/09/02 03:03:43;;;;;;;7.47;3.92;;;;;;;19.23;81.60;98338.19;4504043;31;20077;-77
2023/09/02 03:06:16;;;;;;;8.63;4.28;;;;;;;19.28;80.49;98338.69;4504126;31;20087;-77
2023/09/02 03:08:43;;;;;;;7.32;3.80;;;;;;;19.17;81.91;98341.25;4503728;31;20378;-77
2023/09/02 03:11:09;;;;;;;8.25;3.87;;;;;;;19.47;79.04;98343.41;4504063;31;20410;-76
2023/09/02 03:13:37;;;;;;;7.30;3.80;;;;;;;19.48;78.06;98342.44;4489775;31;20123;-77
2023/09/02 03:16:04;;;;;;;7.95;3.70;;;;;;;19.38;79.00;98341.47;4489509;31;20155;-77
2023/09/02 03:18:32;;;;;;;7.47;3.55;;;;;;;19.03;80.41;98341.41;4503917;31;20115;-76
2023/09/02 03:21:07;;;;;;;9.73;4.30;;;;;;;19.14;80.65;98338.87;4489921;31;20159;-77
2023/09/02 03:23:34;;;;;;;8.70;4.40;;;;;;;18.91;81.95;98337.06;4503751;31;20128;-77
2023/09/02 03:26:12;;;;;;;8.60;4.10;;;;;;;19.11;81.16;98343.47;4489559;31;20152;-77
2023/09/02 03:28:39;;;;;;;7.35;4.10;;;;;;;19.13;80.39;98342.41;4503694;31;20114;-76
2023/09/02 03:31:09;;;;;;;10.00;3.80;;;;;;;18.99;80.75;98338.19;4504006;31;20453;-77
2023/09/02 03:33:37;;;;;;;8.25;4.20;;;;;;;19.26;78.55;98337.13;4489640;31;20502;-77
2023/09/02 03:36:04;;;;;;;8.85;4.20;;;;;;;18.76;81.12;98333.78;4488483;31;20100;-77
2023/09/02 03:38:31;;;;;;;10.45;4.85;;;;;;;18.79;81.74;98330.94;4503811;31;20107;-76
2023/09/02 03:40:58;;;;;;;11.43;4.55;;;;;;;18.77;82.55;98336.28;4503860;31;20114;-77
2023/09/02 03:43:25;;;;;;;9.55;4.40;;;;;;;18.63;83.03;98338.19;4503487;31;20106;-77
2023/09/02 03:45:52;;;;;;;8.23;4.32;;;;;;;18.68;83.52;98350.00;4503758;31;20139;-76
2023/09/02 03:48:19;;;;;;;11.32;5.15;;;;;;;17.85;88.23;98346.19;4503829;31;20175;-76
2023/09/02 03:51:05;;;;;;;9.02;5.10;;;;;;;17.12;92.68;98343.19;4503425;31;20088;-76
2023/09/02 03:53:32;;;;;;;10.02;5.32;;;;;;;16.25;100.00;98343.44;4503727;31;20092;-76
2023/09/02 03:55:59;;;;;;;12.15;5.72;;;;;;;16.89;100.00;98345.50;4503687;31;20151;-76
2023/09/02 03:58:28;;;;;;;9.10;4.72;;;;;;;17.36;95.79;98346.81;4503332;31;20119;-76
2023/09/02 04:00:55;;;;;;;9.55;5.07;;;;;;;18.18;88.20;98348.28;4503623;31;20108;-76
2023/09/02 04:03:23;;;;;;;9.57;4.50;;;;;;;18.28;87.97;98353.69;4489178;31;20133;-75
2023/09/02 04:05:51;;;;;;;8.98;4.43;;;;;;;18.90;83.39;98351.91;4503395;31;20169;-77
2023/09/02 04:08:19;;;;;;;9.48;4.20;;;;;;;18.90;82.11;98357.16;4489412;31;20517;-77
2023/09/02 04:10:51;;;;;;;8.57;4.50;;;;;;;18.94;81.71;98353.38;4489096;31;20106;-76
2023/09/02 04:13:26;;;;;;;9.65;4.05;;;;;;;19.20;79.66;98356.72;4503649;31;20131;-76
2023/09/02 04:15:54;;;;;;;9.15;4.50;;;;;;;18.88;81.47;98363.44;4503596;31;20148;-77
2023/09/02 04:18:21;;;;;;;9.18;4.95;;;;;;;18.37;84.22;98361.72;4489000;31;20095;-76
2023/09/02 04:20:48;;;;;;;8.55;4.78;;;;;;;18.14;85.14;98347.66;4503609;31;20117;-76
2023/09/02 04:23:15;;;;;;;9.48;4.87;;;;;;;18.29;82.83;98357.97;4489383;31;20132;-77
2023/09/02 04:25:48;;;;;;;8.70;4.78;;;;;;;18.00;85.51;98358.22;4502865;31;20118;-77
2023/09/02 04:28:16;;;;;;;10.45;5.55;;;;;;;17.70;86.93;98365.50;4503538;31;20442;-76
2023/09/02 04:30:44;;;;;;;11.57;5.32;;;;;;;17.74;88.34;98365.19;4489263;31;20556;-76
2023/09/02 04:33:11;;;;;;;9.63;4.90;;;;;;;17.64;89.90;98369.31;4488888;31;20080;-77
2023/09/02 04:35:43;;;;;;;10.13;4.95;;;;;;;18.19;85.50;98373.47;4503206;31;20401;-77
2023/09/02 04:38:10;;;;;;;8.65;4.85;;;;;;;18.25;85.97;98377.41;4489257;31;20160;-77
2023/09/02 04:40:39;;;;;;;9.95;4.20;;;;;;;18.57;84.34;98388.25;4503138;31;20088;-77
2023/09/02 04:43:07;;;;;;;9.32;4.47;;;;;;;19.10;80.57;98386.25;4503429;31;20100;-77
2023/09/02 04:45:35;;;;;;;8.13;4.12;;;;;;;19.29;77.99;98389.22;4502950;31;20087;-77
2023/09/02 04:48:03;;;;;;;8.70;4.03;;;;;;;19.22;78.18;98383.59;4488940;31;20108;-77
2023/09/02 04:50:31;;;;;;;10.13;5.70;;;;;;;19.22;77.77;98388.00;4503453;31;20096;-77
2023/09/02 04:52:59;;;;;;;9.05;5.00;;;;;;;19.16;77.98;98384.06;4503070;31;20092;-77
2023/09/02 04:55:26;;;;;;;9.43;4.50;;;;;;;18.97;80.18;98383.69;4503208;31;20104;-77
2023/09/02 04:57:54;;;;;;;10.18;4.50;;;;;;;18.96;80.79;98384.66;4488964;31;20355;-77
2023/09/02 05:00:25;;;;;;;8.63;4.47;;;;;;;19.32;79.93;98381.16;4488739;31;20102;-77
2023/09/02 05:02:53;;;;;;;9.93;4.57;;;;;;;19.64;79.19;98384.03;4489032;31;20139;-77
2023/09/02 05:05:21;;;;;;;10.98;4.80;;;;;;;19.65;79.55;98388.31;4503213;31;20118;-77
2023/09/02 05:07:48;;;;;;;10.23;4.30;;;;;;;19.74;80.32;98392.87;4488595;31;20127;-77
2023/09/02 05:10:16;;;;;;;8.93;4.60;;;;;;;19.76;81.52;98390.13;4503331;31;20140;-77
2023/09/02 05:12:43;;;;;;;12.57;4.30;;;;;;;20.03;80.35;98392.47;4503310;31;20095;-77
2023/09/02 05:15:10;;;;;;;8.40;4.28;;;;;;;20.29;79.58;98403.56;4502765;31;20111;-77
2023/09/02 05:17:37;;;;;;;8.63;3.95;;;;;;;20.46;79.23;98403.16;4502991;31;20652;-77
2023/09/02 05:20:05;;;;;;;5.55;3.12;;;;;;;20.94;79.85;98398.47;4503136;31;20103;-77
2023/09/02 05:22:32;;;;;;;6.53;3.15;;;;;;;22.34;71.87;98407.13;4488442;31;20175;-77
2023/09/02 05:24:59;;;;;;;6.80;2.97;;;;;;;23.81;64.29;98410.78;4502836;31;20114;-77
2023/09/02 05:27:26;;;;;;;7.32;3.30;;;;;;;25.16;60.38;98411.38;4502758;31;20100;-77
2023/09/02 05:29:53;;;;;;;5.05;2.75;;;;;;;26.19;55.10;98418.75;4488796;31;20430;-78
2023/09/02 05:32:20;;;;;;;6.05;2.92;;;;;;;26.91;51.90;98422.00;4503050;31;20462;-78
2023/09/02 05:34:47;;;;;;;5.93;2.53;;;;;;;27.93;48.92;98422.53;4502513;31;20632;-78
2023/09/02 05:37:14;;;;;;;4.70;2.55;;;;;;;28.80;47.19;98428.03;4502792;31;20106;-78
2023/09/02 05:39:41;;;;;;;7.72;2.60;;;;;;;28.84;45.33;98434.66;4502921;31;20107;-78
2023/09/02 05:42:08;;;;;;;6.90;2.72;;;;;;;29.79;43.06;98430.03;4502546;31;20539;-78
2023/09/02 05:44:35;;;;;;;4.95;2.33;;;;;;;29.91;42.48;98427.78;4502634;31;20088;-78
2023/09/02 05:47:02;;;;;;;3.75;2.30;;;;;;;30.93;40.94;98426.25;4502823;31;20122;-78
2023/09/02 05:49:29;;;;;;;4.82;2.35;;;;;;;31.09;39.77;98425.22;4502391;31;20080;-78
2023/09/02 05:51:56;;;;;;;4.55;2.00;;;;;;;30.73;40.66;98427.81;4502756;31;20155;-78
2023/09/02 05:54:23;;;;;;;3.62;2.20;;;;;;;31.07;40.22;98422.75;4502664;31;20108;-78
2023/09/02 05:56:50;;;;;;;4.05;2.22;;;;;;;31.08;40.62;98426.22;4502371;31;20084;-78
2023/09/02 05:59:17;;;;;;;5.22;2.30;;;;;;;30.74;41.33;98425.00;4503735;31;20510;-78
2023/09/02 06:01:46;;;;;;;4.35;2.17;;;;;;;30.93;41.20;98430.75;4504522;31;20459;-78
2023/09/02 06:04:13;;;;;;;4.57;2.17;;;;;;;31.17;40.56;98429.63;4504099;31;20092;-78
2023/09/02 06:06:40;;;;;;;3.35;2.00;;;;;;;31.06;41.16;98425.59;4504627;31;20104;-78
2023/09/02 06:09:08;;;;;;;3.25;1.95;;;;;;;30.51;42.41;98427.69;4504315;31;20092;-78
2023/09/02 06:11:35;;;;;;;3.55;2.00;;;;;;;30.07;43.54;98418.84;4504209;31;20085;-78
2023/09/02 06:14:02;;;;;;;5.20;2.12;;;;;;;29.70;43.94;98430.25;4504465;31;20100;-78
2023/09/02 06:16:29;;;;;;;4.45;1.80;;;;;;;28.94;45.66;98429.19;4504535;31;20092;-78
2023/09/02 06:18:56;;;;;;;5.07;2.20;;;;;;;28.74;46.73;98437.53;4504064;31;20098;-78
2023/09/02 06:21:23;;;;;;;4.53;2.25;;;;;;;28.49;48.04;98428.78;4504475;31;20148;-78
2023/09/02 06:23:50;;;;;;;4.28;2.12;;;;;;;28.81;47.32;98437.66;4489839;31;20124;-78
2023/09/02 06:26:17;;;;;;;8.30;2.17;;;;;;;28.86;46.27;98439.81;4504283;31;20163;-78
2023/09/02 06:28:45;;;;;;;3.58;2.08;;;;;;;28.23;48.44;98436.94;4490106;31;20098;-77
2023/09/02 06:31:12;;;;;;;3.70;1.98;;;;;;;28.09;49.25;98437.63;4503902;31;20724;-77
2023/09/02 06:33:39;;;;;;;4.82;2.25;;;;;;;28.08;49.54;98441.28;4489900;31;20103;-77
2023/09/02 06:36:16;;;;;;;4.87;2.10;;;;;;;28.38;49.16;98444.25;4504279;31;20573;-78
2023/09/02 06:38:43;;;;;;;;;;;;;;;29.18;46.38;98447.66;4504340;31;20446;-78
2023/09/02 06:41:15;;;;;;;4.20;2.05;;;;;;;29.97;45.12;98437.69;4490147;31;19964;-78
2023/09/02 06:43:42;;;;;;;5.75;2.10;;;;;;;30.61;43.71;98440.75;4504406;31;20122;-78
2023/09/02 06:46:19;;;;;;;4.57;2.10;;;;;;;30.14;43.81;98441.06;4489619;31;20100;-78
2023/09/02 06:48:47;;;;;;;3.97;1.98;;;;;;;30.29;44.23;98449.06;4490132;31;20079;-78
2023/09/02 06:51:15;;;;;;;3.80;2.10;;;;;;;30.00;43.58;98445.31;4504177;31;20076;-78
2023/09/02 06:53:42;;;;;;;5.55;2.20;;;;;;;29.74;43.86;98444.84;4489491;31;20160;-78
2023/09/02 06:56:12;;;;;;;4.25;1.80;;;;;;;29.84;44.22;98448.91;4504253;31;20096;-78
2023/09/02 06:58:40;;;;;;;5.10;2.10;;;;;;;29.85;43.61;98447.91;4504069;31;20422;-78
2023/09/02 07:01:18;;;;;;;4.37;1.92;;;;;;;29.22;44.76;98445.47;4490033;31;20072;-78
2023/09/02 07:03:45;;;;;;;5.57;2.10;;;;;;;28.98;45.37;98447.25;4504051;31;20429;-77
2023/09/02 07:06:15;;;;;;;5.93;2.00;;;;;;;28.96;45.93;98449.25;4503900;31;20575;-78
2023/09/02 07:08:43;;;;;;;4.32;2.00;;;;;;;29.06;46.00;98457.03;4504093;31;20088;-78
2023/09/02 07:11:11;;;;;;;7.12;2.10;;;;;;;28.86;46.00;98455.75;4504022;31;20207;-78
2023/09/02 07:13:38;;;;;;;5.12;1.85;;;;;;;28.96;45.93;98461.72;4503679;31;20159;-78
2023/09/02 07:16:06;;;;;;;6.10;2.00;;;;;;;29.12;44.50;98469.59;4489663;31;20092;-78
2023/09/02 07:18:34;;;;;;;5.12;1.80;;;;;;;28.62;44.77;98459.31;4489730;31;20421;-78
2023/09/02 07:21:02;;;;;;;6.62;1.98;;;;;;;28.35;45.92;98464.00;4503677;31;20092;-78
2023/09/02 07:23:31;;;;;;;5.30;2.10;;;;;;;28.88;45.42;98465.22;4504041;31;20466;-78
2023/09/02 07:26:04;;;;;;;5.40;2.20;;;;;;;29.14;44.26;98469.41;4489420;31;20118;-78
2023/09/02 07:28:32;;;;;;;4.43;2.08;;;;;;;29.23;44.32;98479.00;4490041;31;20605;-78
2023/09/02 07:31:01;;;;;;;6.75;2.58;;;;;;;29.17;44.14;98479.72;4489672;31;20436;-78
2023/09/02 07:33:29;;;;;;;4.30;2.05;;;;;;;29.38;42.98;98467.50;4490029;31;20543;-78
2023/09/02 07:35:57;;;;;;;6.68;2.03;;;;;;;28.97;43.18;98474.81;4489303;31;20108;-78
2023/09/02 07:38:25;;;;;;;3.90;2.00;;;;;;;29.32;43.58;98480.62;4503631;31;20080;-78
2023/09/02 07:40:52;;;;;;;4.07;1.90;;;;;;;29.54;42.04;98473.72;4503581;31;20068;-77
2023/09/02 07:43:19;;;;;;;4.78;2.05;;;;;;;29.47;42.74;98480.75;4503791;31;20435;-78
2023/09/02 07:45:48;;;;;;;5.20;2.25;;;;;;;29.25;43.39;98479.69;4503672;31;20084;-78
2023/09/02 07:48:15;;;;;;;5.25;1.98;;;;;;;29.54;43.12;98482.53;4503370;31;20159;-78
2023/09/02 07:50:43;;;;;;;4.85;1.77;;;;;;;29.35;43.40;98480.31;4503818;31;20092;-78
2023/09/02 07:53:10;;;;;;;6.07;2.10;;;;;;;29.88;42.35;98479.50;4489563;31;20104;-79
2023/09/02 07:55:37;;;;;;;4.60;2.10;;;;;;;30.22;41.74;98479.09;4503324;31;20088;-78
2023/09/02 07:58:04;;;;;;;3.92;1.90;;;;;;;30.36;41.40;98480.09;4489515;31;20102;-78
2023/09/02 08:00:34;;;;;;;4.55;1.80;;;;;;;30.16;41.23;98484.28;4503748;31;20072;-78
2023/09/02 08:03:02;;;;;;;4.50;1.87;;;;;;;30.01;41.92;98483.41;4489173;31;20099;-78
2023/09/02 08:05:29;;;;;;;4.40;2.00;;;;;;;29.88;41.56;98483.97;4503619;31;20096;-78
2023/09/02 08:07:57;;;;;;;5.28;1.98;;;;;;;30.06;41.94;98486.31;4503596;31;20131;-78
2023/09/02 08:10:24;;;;;;;3.62;2.00;;;;;;;30.21;40.76;98477.44;4503254;31;20576;-78
2023/09/02 08:12:51;;;;;;;2.72;1.70;;;;;;;30.15;42.19;98486.13;4503564;31;20120;-78
2023/09/02 08:15:17;;;;;;;5.07;2.00;;;;;;;30.32;41.60;98489.47;4503512;31;20151;-78
2023/09/02 08:17:44;;;;;;;5.30;1.80;;;;;;;30.67;40.91;98490.66;4503127;31;20155;-78
2023/09/02 08:20:11;;;;;;;6.07;2.47;;;;;;;30.84;40.18;98493.97;4503672;31;20126;-78
2023/09/02 08:22:39;;;;;;;5.22;1.90;;;;;;;30.49;39.22;98492.78;4503028;31;20096;-78
2023/09/02 08:25:07;;;;;;;4.43;2.10;;;;;;;30.49;39.85;98503.44;4503130;31;20586;-78
2023/09/02 08:27:34;;;;;;;6.87;2.00;;;;;;;30.48;40.62;98491.97;4489090;31;20095;-78
2023/09/02 08:30:04;;;;;;;4.28;1.87;;;;;;;30.71;39.40;98496.44;4503252;31;20080;-78
2023/09/02 08:32:32;;;;;;;5.03;1.90;;;;;;;30.99;38.74;98493.97;4503527;31;20088;-78
2023/09/02 08:34:59;;;;;;;5.75;2.10;;;;;;;30.99;38.33;98492.13;4503346;31;20107;-78
2023/09/02 08:37:26;;;;;;;4.03;1.87;;;;;;;30.98;38.83;98494.97;4488747;31;20105;-78
2023/09/02 08:39:53;;;;;;;6.07;1.98;;;;;;;30.88;39.32;98499.75;4503499;31;20101;-78
2023/09/02 08:42:20;;;;;;;2.92;1.62;;;;;;;31.23;39.49;98498.19;4503569;31;20429;-78
2023/09/02 08:44:48;;;;;;;3.95;1.98;;;;;;;31.47;38.90;98503.19;4503001;31;20155;-78
2023/09/02 08:47:19;;;;;;;3.78;1.98;;;;;;;30.99;40.41;98494.78;4503374;31;20079;-79
2023/09/02 08:49:50;;;;;;;5.05;1.90;;;;;;;31.59;38.36;98504.38;4489360;31;20064;-78
2023/09/02 08:52:18;;;;;;;6.55;2.10;;;;;;;30.88;38.91;98502.41;4488957;31;20096;-78
2023/09/02 08:54:45;;;;;;;4.97;2.00;;;;;;;31.16;38.79;98497.25;4488979;31;20621;-79
2023/09/02 08:57:15;;;;;;;4.62;1.92;;;;;;;31.43;39.52;98498.44;4503279;31;20168;-78
2023/09/02 08:59:43;;;;;;;5.43;2.00;;;;;;;31.40;39.95;98499.66;4502970;31;20494;-79
2023/09/02 09:02:13;;;;;;;4.82;2.08;;;;;;;31.60;40.04;98499.87;4503147;31;20155;-78
2023/09/02 09:04:40;;;;;;;8.00;2.40;;;;;;;31.66;38.81;98507.09;4503163;31;20092;-78
2023/09/02 09:07:08;;;;;;;4.68;2.17;;;;;;;31.81;38.70;98499.09;4502934;31;20071;-78
2023/09/02 09:09:37;;;;;;;5.97;2.00;;;;;;;31.54;39.78;98503.28;4488930;31;20098;-78
2023/09/02 09:12:06;;;;;;;5.10;2.08;;;;;;;31.82;40.04;98506.09;4488673;31;20152;-78
2023/09/02 09:14:36;;;;;;;5.60;2.30;;;;;;;32.60;37.97;98504.31;4488762;31;20122;-78
2023/09/02 09:17:04;;;;;;;4.22;1.90;;;;;;;32.65;37.83;98507.22;4503171;31;20079;-78
2023/09/02 09:19:32;;;;;;;5.37;1.75;;;;;;;32.50;37.31;98504.66;4502806;31;20188;-78
2023/09/02 09:22:02;;;;;;;5.18;1.87;;;;;;;32.41;36.70;98500.47;4488957;31;20120;-78
2023/09/02 09:24:29;;;;;;;4.25;1.95;;;;;;;32.02;37.08;98509.78;4502955;31;20183;-78
2023/09/02 09:26:58;;;;;;;4.78;2.53;;;;;;;32.30;38.03;98514.34;4502455;31;20072;-78
2023/09/02 09:29:25;;;;;;;3.05;1.80;;;;;;;32.20;36.55;98510.13;4488688;31;20098;-78
2023/09/02 09:32:13;;;;;;;4.93;1.90;;;;;;;32.18;37.36;98500.66;4503015;31;20102;-78
2023/09/02 09:34:44;;;;;;;4.20;1.83;;;;;;;32.13;38.85;98513.78;4501791;31;20096;-78
2023/09/02 09:37:11;;;;;;;5.97;2.00;;;;;;;32.27;37.75;98512.88;4502797;31;20151;-78
2023/09/02 09:39:42;;;;;;;3.67;1.90;;;;;;;31.95;38.51;98508.88;4503006;31;20115;-78
2023/09/02 09:42:11;;;;;;;4.75;1.80;;;;;;;31.29;40.21;98503.62;4502627;31;20106;-78
2023/09/02 09:44:55;;;;;;;4.95;2.20;;;;;;;31.36;39.25;98517.00;4488437;31;20439;-79
2023/09/02 09:47:23;;;;;;;4.75;1.85;;;;;;;31.86;37.71;98502.84;4502584;31;20154;-78
2023/09/02 09:49:50;;;;;;;5.97;2.00;;;;;;;31.77;38.47;98503.97;4502873;31;20076;-79
2023/09/02 09:52:19;;;;;;;4.07;1.65;;;;;;;31.80;38.32;98503.59;4502689;31;20089;-79
2023/09/02 09:54:51;;;;;;;3.42;1.80;;;;;;;32.04;36.82;98509.59;4502276;31;20096;-78
2023/09/02 09:57:30;;;;;;;8.35;2.53;;;;;;;32.26;36.33;98513.06;4502630;31;20083;-78
2023/09/02 09:59:57;;;;;;;3.78;1.83;;;;;;;32.17;37.37;98507.03;4502571;31;20414;-79
2023/09/02 10:02:24;;;;;;;7.30;2.20;;;;;;;31.98;37.27;98497.81;4502240;31;20106;-79
2023/09/02 10:04:55;;;;;;;4.90;2.00;;;;;;;32.50;36.70;98504.66;4502508;31;20190;-78
2023/09/02 10:07:25;;;;;;;6.22;1.90;;;;;;;31.43;37.19;98501.94;4488424;31;20075;-78
2023/09/02 10:09:54;;;;;;;5.20;1.92;;;;;;;31.55;37.99;98502.25;4502261;31;20088;-79
2023/09/02 10:12:21;;;;;;;4.75;1.83;;;;;;;31.29;38.38;98502.78;4502517;31;20092;-79
2023/09/02 10:14:50;;;;;;;4.03;1.83;;;;;;;31.85;36.25;98487.03;4502327;31;20498;-79
2023/09/02 10:17:17;;;;;;;6.07;2.20;;;;;;;32.17;37.05;98497.16;4501919;31;20080;-79
2023/09/02 10:19:46;;;;;;;6.75;2.10;;;;;;;31.35;37.41;98494.84;4502351;31;20084;-79
2023/09/02 10:22:23;;;;;;;5.00;2.10;;;;;;;31.86;36.01;98497.50;4502023;31;20175;-78
2023/09/02 10:25:02;;;;;;;4.28;1.90;;;;;;;31.97;35.43;98498.84;4489063;31;20118;-79
2023/09/02 10:27:32;;;;;;;5.05;2.00;;;;;;;31.84;36.52;98501.38;4501964;31;20094;-79
2023/09/02 10:30:00;;;;;;;6.50;2.08;;;;;;;32.02;37.15;98503.62;4487813;31;20084;-78
2023/09/02 10:32:41;;;;;;;4.62;1.77;;;;;;;31.79;37.09;98498.44;4502276;31;20092;-79
2023/09/02 10:35:19;;;;;;;6.50;2.50;;;;;;;32.23;36.97;98506.28;4487899;31;20104;-79
2023/09/02 10:37:56;;;;;;;4.45;1.75;;;;;;;32.35;35.14;98493.25;4487405;31;20098;-79
2023/09/02 10:40:24;;;;;;;5.00;2.10;;;;;;;32.57;34.87;98499.37;4487862;31;20135;-79
2023/09/02 10:42:53;;;;;;;5.07;2.00;;;;;;;32.33;36.08;98501.47;4501877;31;20096;-79
2023/09/02 10:45:21;;;;;;;3.92;1.90;;;;;;;32.20;35.66;98501.28;4503019;31;20160;-79
2023/09/02 10:47:49;;;;;;;3.65;1.70;;;;;;;32.27;36.40;98499.50;4504434;31;20080;-78
2023/09/02 10:50:18;;;;;;;4.82;1.70;;;;;;;32.04;35.31;98504.25;4489717;31;20159;-79
2023/09/02 10:52:45;;;;;;;4.45;1.90;;;;;;;32.32;34.91;98506.97;4490060;31;20120;-78
2023/09/02 10:55:32;;;;;;;;;;;;;;;31.98;35.74;98497.81;4492475;31;20103;-79
2023/09/02 10:57:59;;;;;;;5.47;1.92;;;;;;;31.97;36.54;98506.84;4503859;31;19971;-79
2023/09/02 11:00:28;;;;;;;4.25;2.47;;;;;;;31.71;36.84;98514.56;4504222;31;20132;-79
2023/09/02 11:02:56;;;;;;;6.50;2.00;;;;;;;31.92;36.04;98515.44;4489946;31;20159;-79
2023/09/02 11:05:25;;;;;;;4.40;1.70;;;;;;;32.62;36.38;98515.63;4503701;31;20635;-79
2023/09/02 11:07:53;;;;;;;5.68;1.85;;;;;;;32.33;35.20;98506.78;4503956;31;20108;-79
2023/09/02 11:10:20;;;;;;;4.60;1.90;;;;;;;32.60;35.10;98517.66;4489968;31;20430;-78
2023/09/02 11:13:06;;;;;;;5.07;1.70;;;;;;;32.10;35.22;98519.47;4503814;31;20677;-78
2023/09/02 11:15:34;;;;;;;5.45;1.75;;;;;;;32.06;36.24;98518.22;4503964;31;20343;-79
2023/09/02 11:18:27;;;;;;;2.67;1.73;;;;;;;31.94;36.54;98520.56;4503940;31;20084;-79
2023/09/02 11:20:54;;;;;;;4.75;1.77;;;;;;;32.29;35.97;98520.69;4504043;31;20087;-79
2023/09/02 11:23:21;;;;;;;4.85;1.90;;;;;;;32.41;36.05;98528.00;4489823;31;20139;-78
2023/09/02 11:26:03;;;;;;;5.85;1.90;;;;;;;32.60;35.14;98521.16;4503354;31;20763;-78
2023/09/02 11:28:30;;;;;;;5.65;1.85;;;;;;;32.24;36.56;98515.94;4503983;31;20175;-79
2023/09/02 11:31:13;;;;;;;3.83;2.10;;;;;;;32.32;37.04;98522.97;4489743;31;20136;-78
2023/09/02 11:33:40;;;;;;;5.28;2.15;;;;;;;32.06;37.24;98523.56;4503449;31;20095;-78
2023/09/02 11:36:12;;;;;;;4.45;1.83;;;;;;;31.88;37.11;98530.16;4489687;31;20156;-78
2023/09/02 11:38:39;;;;;;;5.57;2.12;;;;;;;31.91;37.98;98523.63;4503866;31;20087;-78
2023/09/02 11:41:07;;;;;;;4.75;2.35;;;;;;;32.06;37.82;98529.72;4503549;31;20446;-79